sensor_id;sensor_type;location;lat;lon;timestamp;pressure;altitude;pressure_sealevel;temperature;humidity
36062;BME280;22123;52.412;20.970;2023-08-01T00:00:29;99845.75;;;17.26;100.00
36062;BME280;22123;52.412;20.970;2023-08-01T00:02:55;99806.66;;;17.09;100.00
36062;BME280;22123;52.412;20.970;2023-08-01T00:05:21;99824.91;;;17.20;100.00
36062;BME280;22123;52.412;20.970;2023-08-01T00:07:46;99813.94;;;17.15;100.00
36062;BME280;22123;52.412;20.970;2023-08-01T00:10:12;99845.91;;;17.31;100.00
36062;BME280;22123;52.412;20.970;2023-08-01T00:12:38;99807.06;;;17.12;100.00
36062;BME280;22123;52.412;20.970;2023-08-01T00:15:04;99836.69;;;17.32;100.00
36062;BME280;22123;52.412;20.970;2023-08-01T00:17:30;99795.31;;;17.12;100.00
36062;BME280;22123;52.412;20.970;2023-08-01T00:19:56;99803.63;;;17.17;100.00
36062;BME280;22123;52.412;20.970;2023-08-01T00:22:21;99826.97;;;17.36;100.00
36062;BME280;22123;52.412;20.970;2023-08-01T00:24:47;99837.84;;;17.36;100.00
36062;BME280;22123;52.412;20.970;2023-08-01T00:27:14;99814.78;;;17.27;100.00
36062;BME280;22123;52.412;20.970;2023-08-01T00:29:39;99793.00;;;17.15;100.00
36062;BME280;22123;52.412;20.970;2023-08-01T00:32:05;99828.63;;;17.37;100.00
36062;BME280;22123;52.412;20.970;2023-08-01T00:34:31;99825.91;;;17.37;100.00
36062;BME280;22123;52.412;20.970;2023-08-01T00:36:57;99826.75;;;17.38;100.00
36062;BME280;22123;52.412;20.970;2023-08-01T00:39:23;99795.81;;;17.20;100.00
36062;BME280;22123;52.412;20.970;2023-08-01T00:41:48;99820.25;;;17.39;100.00
36062;BME280;22123;52.412;20.970;2023-08-01T00:44:14;99812.53;;;17.36;100.00
36062;BME280;22123;52.412;20.970;2023-08-01T00:46:40;99793.00;;;17.27;100.00
36062;BME280;22123;52.412;20.970;2023-08-01T00:49:06;99811.13;;;17.33;100.00
36062;BME280;22123;52.412;20.970;2023-08-01T00:51:32;99780.94;;;17.23;100.00
36062;BME280;22123;52.412;20.970;2023-08-01T00:53:58;99799.19;;;17.34;100.00
36062;BME280;22123;52.412;20.970;2023-08-01T00:56:25;99776.78;;;17.20;100.00
36062;BME280;22123;52.412;20.970;2023-08-01T00:58:51;99796.13;;;17.43;100.00
36062;BME280;22123;52.412;20.970;2023-08-01T01:01:17;99753.63;;;17.18;100.00
36062;BME280;22123;52.412;20.970;2023-08-01T01:03:43;99792.13;;;17.45;100.00
36062;BME280;22123;52.412;20.970;2023-08-01T01:06:16;99769.16;;;17.29;100.00
36062;BME280;22123;52.412;20.970;2023-08-01T01:08:44;99789.97;;;17.47;100.00
36062;BME280;22123;52.412;20.970;2023-08-01T01:11:10;99781.69;;;17.42;100.00
36062;BME280;22123;52.412;20.970;2023-08-01T01:13:35;99785.34;;;17.48;100.00
36062;BME280;22123;52.412;20.970;2023-08-01T01:16:01;99744.88;;;17.28;100.00
36062;BME280;22123;52.412;20.970;2023-08-01T01:18:27;99776.97;;;17.49;100.00
36062;BME280;22123;52.412;20.970;2023-08-01T01:20:53;99762.88;;;17.41;100.00
36062;BME280;22123;52.412;20.970;2023-08-01T01:23:18;99772.38;;;17.50;100.00
36062;BME280;22123;52.412;20.970;2023-08-01T01:25:46;99741.00;;;17.35;100.00
36062;BME280;22123;52.412;20.970;2023-08-01T01:28:12;99746.78;;;17.39;100.00
36062;BME280;22123;52.412;20.970;2023-08-01T01:30:40;99732.84;;;17.35;100.00
36062;BME280;22123;52.412;20.970;2023-08-01T01:33:07;99727.25;;;17.30;100.00
36062;BME280;22123;52.412;20.970;2023-08-01T01:35:34;99731.75;;;17.36;100.00
36062;BME280;22123;52.412;20.970;2023-08-01T01:38:00;99738.38;;;17.41;100.00
36062;BME280;22123;52.412;20.970;2023-08-01T01:40:25;99748.69;;;17.50;100.00
36062;BME280;22123;52.412;20.970;2023-08-01T01:42:51;99731.53;;;17.38;100.00
36062;BME280;22123;52.412;20.970;2023-08-01T01:45:17;99739.56;;;17.45;100.00
36062;BME280;22123;52.412;20.970;2023-08-01T01:47:43;99738.06;;;17.49;100.00
36062;BME280;22123;52.412;20.970;2023-08-01T01:50:09;99736.03;;;17.44;100.00
36062;BME280;22123;52.412;20.970;2023-08-01T01:52:34;99739.09;;;17.48;100.00
36062;BME280;22123;52.412;20.970;2023-08-01T01:55:00;99725.97;;;17.45;100.00
36062;BME280;22123;52.412;20.970;2023-08-01T01:57:26;99711.06;;;17.35;100.00
36062;BME280;22123;52.412;20.970;2023-08-01T01:59:52;99709.16;;;17.36;100.00
36062;BME280;22123;52.412;20.970;2023-08-01T02:02:18;99718.16;;;17.36;100.00
36062;BME280;22123;52.412;20.970;2023-08-01T02:04:46;99703.72;;;17.36;100.00
36062;BME280;22123;52.412;20.970;2023-08-01T02:07:12;99681.72;;;17.26;100.00
36062;BME280;22123;52.412;20.970;2023-08-01T02:09:38;99704.09;;;17.40;100.00
36062;BME280;22123;52.412;20.970;2023-08-01T02:12:04;99667.41;;;17.18;100.00
36062;BME280;22123;52.412;20.970;2023-08-01T02:14:30;99668.72;;;17.16;100.00
36062;BME280;22123;52.412;20.970;2023-08-01T02:16:56;99701.72;;;17.31;100.00
36062;BME280;22123;52.412;20.970;2023-08-01T02:19:21;99683.25;;;17.21;100.00
36062;BME280;22123;52.412;20.970;2023-08-01T02:21:47;99627.72;;;16.87;100.00
36062;BME280;22123;52.412;20.970;2023-08-01T02:24:14;99663.41;;;17.09;100.00
36062;BME280;22123;52.412;20.970;2023-08-01T02:26:41;99678.53;;;17.17;100.00
36062;BME280;22123;52.412;20.970;2023-08-01T02:29:07;99693.31;;;17.21;100.00
36062;BME280;22123;52.412;20.970;2023-08-01T02:31:33;99638.88;;;16.97;100.00
36062;BME280;22123;52.412;20.970;2023-08-01T02:33:58;99672.84;;;17.18;100.00
36062;BME280;22123;52.412;20.970;2023-08-01T02:36:24;99655.47;;;17.08;100.00
36062;BME280;22123;52.412;20.970;2023-08-01T02:38:50;99674.38;;;17.14;100.00
36062;BME280;22123;52.412;20.970;2023-08-01T02:41:16;99640.31;;;17.00;100.00
36062;BME280;22123;52.412;20.970;2023-08-01T02:43:41;99654.41;;;17.09;100.00
36062;BME280;22123;52.412;20.970;2023-08-01T02:46:07;99648.59;;;17.05;100.00
36062;BME280;22123;52.412;20.970;2023-08-01T02:48:33;99653.66;;;17.01;100.00
36062;BME280;22123;52.412;20.970;2023-08-01T02:50:59;99636.53;;;16.89;100.00
36062;BME280;22123;52.412;20.970;2023-08-01T02:53:24;99645.03;;;16.93;100.00
36062;BME280;22123;52.412;20.970;2023-08-01T02:55:50;99629.38;;;16.76;100.00
36062;BME280;22123;52.412;20.970;2023-08-01T02:58:16;99648.91;;;16.85;100.00
36062;BME280;22123;52.412;20.970;2023-08-01T03:00:42;99603.72;;;16.60;100.00
36062;BME280;22123;52.412;20.970;2023-08-01T03:03:07;99640.59;;;16.80;100.00
36062;BME280;22123;52.412;20.970;2023-08-01T03:05:37;99625.72;;;16.71;100.00
36062;BME280;22123;52.412;20.970;2023-08-01T03:08:03;99617.66;;;16.64;100.00
36062;BME280;22123;52.412;20.970;2023-08-01T03:10:30;99613.97;;;16.58;100.00
36062;BME280;22123;52.412;20.970;2023-08-01T03:12:55;99590.34;;;16.47;100.00
36062;BME280;22123;52.412;20.970;2023-08-01T03:15:21;99626.44;;;16.78;100.00
36062;BME280;22123;52.412;20.970;2023-08-01T03:17:47;99598.75;;;16.57;100.00
36062;BME280;22123;52.412;20.970;2023-08-01T03:20:13;99625.97;;;16.81;100.00
36062;BME280;22123;52.412;20.970;2023-08-01T03:22:39;99605.72;;;16.65;100.00
36062;BME280;22123;52.412;20.970;2023-08-01T03:25:06;99619.22;;;16.83;100.00
36062;BME280;22123;52.412;20.970;2023-08-01T03:27:33;99609.31;;;16.77;100.00
36062;BME280;22123;52.412;20.970;2023-08-01T03:29:59;99578.78;;;16.63;100.00
36062;BME280;22123;52.412;20.970;2023-08-01T03:32:25;99620.22;;;16.89;100.00
36062;BME280;22123;52.412;20.970;2023-08-01T03:34:51;99592.16;;;16.77;100.00
36062;BME280;22123;52.412;20.970;2023-08-01T03:37:16;99615.13;;;16.93;100.00
36062;BME280;22123;52.412;20.970;2023-08-01T03:39:42;99600.34;;;16.89;100.00
36062;BME280;22123;52.412;20.970;2023-08-01T03:42:08;99608.16;;;16.97;100.00
36062;BME280;22123;52.412;20.970;2023-08-01T03:44:34;99608.97;;;16.97;100.00
36062;BME280;22123;52.412;20.970;2023-08-01T03:47:00;99591.38;;;16.88;100.00
36062;BME280;22123;52.412;20.970;2023-08-01T03:49:25;99602.88;;;17.02;100.00
36062;BME280;22123;52.412;20.970;2023-08-01T03:51:51;99582.75;;;16.91;100.00
36062;BME280;22123;52.412;20.970;2023-08-01T03:54:17;99555.66;;;16.84;100.00
36062;BME280;22123;52.412;20.970;2023-08-01T03:56:43;99593.75;;;17.08;100.00
36062;BME280;22123;52.412;20.970;2023-08-01T03:59:12;99561.84;;;16.92;100.00
36062;BME280;22123;52.412;20.970;2023-08-01T04:01:38;99577.91;;;17.05;100.00
36062;BME280;22123;52.412;20.970;2023-08-01T04:04:04;99591.75;;;17.15;100.00
36062;BME280;22123;52.412;20.970;2023-08-01T04:06:30;99590.69;;;17.16;100.00
36062;BME280;22123;52.412;20.970;2023-08-01T04:08:56;99594.34;;;17.22;100.00
36062;BME280;22123;52.412;20.970;2023-08-01T04:11:22;99567.13;;;17.10;100.00
36062;BME280;22123;52.412;20.970;2023-08-01T04:13:48;99555.44;;;17.10;100.00
36062;BME280;22123;52.412;20.970;2023-08-01T04:16:13;99588.53;;;17.30;100.00
36062;BME280;22123;52.412;20.970;2023-08-01T04:18:39;99555.22;;;17.11;100.00
36062;BME280;22123;52.412;20.970;2023-08-01T04:21:06;99550.59;;;17.12;100.00
36062;BME280;22123;52.412;20.970;2023-08-01T04:23:32;99567.25;;;17.27;100.00
36062;BME280;22123;52.412;20.970;2023-08-01T04:25:57;99585.47;;;17.38;100.00
36062;BME280;22123;52.412;20.970;2023-08-01T04:28:23;99542.06;;;17.20;100.00
36062;BME280;22123;52.412;20.970;2023-08-01T04:30:50;99578.72;;;17.41;100.00
36062;BME280;22123;52.412;20.970;2023-08-01T04:33:16;99568.06;;;17.40;100.00
36062;BME280;22123;52.412;20.970;2023-08-01T04:35:42;99574.31;;;17.52;100.00
36062;BME280;22123;52.412;20.970;2023-08-01T04:38:07;99549.28;;;17.38;100.00
36062;BME280;22123;52.412;20.970;2023-08-01T04:40:33;99557.41;;;17.50;100.00
36062;BME280;22123;52.412;20.970;2023-08-01T04:43:01;99534.00;;;17.37;100.00
36062;BME280;22123;52.412;20.970;2023-08-01T04:45:27;99532.91;;;17.50;100.00
36062;BME280;22123;52.412;20.970;2023-08-01T04:47:52;99565.41;;;17.68;100.00
36062;BME280;22123;52.412;20.970;2023-08-01T04:50:18;99561.03;;;17.67;100.00
36062;BME280;22123;52.412;20.970;2023-08-01T04:52:44;99564.25;;;17.64;100.00
36062;BME280;22123;52.412;20.970;2023-08-01T04:55:10;99540.47;;;17.48;100.00
36062;BME280;22123;52.412;20.970;2023-08-01T04:57:35;99543.69;;;17.45;100.00
36062;BME280;22123;52.412;20.970;2023-08-01T05:00:02;99559.03;;;17.51;100.00
36062;BME280;22123;52.412;20.970;2023-08-01T05:02:28;99551.59;;;17.46;100.00
36062;BME280;22123;52.412;20.970;2023-08-01T05:04:53;99509.91;;;17.17;100.00
36062;BME280;22123;52.412;20.970;2023-08-01T05:07:19;99555.16;;;17.47;100.00
36062;BME280;22123;52.412;20.970;2023-08-01T05:09:45;99516.75;;;17.31;100.00
36062;BME280;22123;52.412;20.970;2023-08-01T05:12:11;99532.56;;;17.46;100.00
36062;BME280;22123;52.412;20.970;2023-08-01T05:14:37;99548.41;;;17.61;100.00
36062;BME280;22123;52.412;20.970;2023-08-01T05:17:03;99515.88;;;17.54;100.00
36062;BME280;22123;52.412;20.970;2023-08-01T05:19:28;99523.63;;;17.75;100.00
36062;BME280;22123;52.412;20.970;2023-08-01T05:21:54;99521.09;;;17.85;100.00
36062;BME280;22123;52.412;20.970;2023-08-01T05:24:20;99529.66;;;18.05;100.00
36062;BME280;22123;52.412;20.970;2023-08-01T05:26:46;99534.91;;;18.24;100.00
36062;BME280;22123;52.412;20.970;2023-08-01T05:29:12;99502.78;;;18.09;100.00
36062;BME280;22123;52.412;20.970;2023-08-01T05:31:38;99531.78;;;18.32;100.00
36062;BME280;22123;52.412;20.970;2023-08-01T05:34:04;99535.06;;;18.34;100.00
36062;BME280;22123;52.412;20.970;2023-08-01T05:36:29;99534.81;;;18.36;100.00
36062;BME280;22123;52.412;20.970;2023-08-01T05:38:56;99498.06;;;18.21;100.00
36062;BME280;22123;52.412;20.970;2023-08-01T05:41:22;99477.41;;;18.08;100.00
36062;BME280;22123;52.412;20.970;2023-08-01T05:43:49;99527.31;;;18.43;100.00
36062;BME280;22123;52.412;20.970;2023-08-01T05:46:15;99487.69;;;18.35;100.00
36062;BME280;22123;52.412;20.970;2023-08-01T05:48:41;99461.41;;;18.29;100.00
36062;BME280;22123;52.412;20.970;2023-08-01T05:51:07;99502.03;;;18.65;100.00
36062;BME280;22123;52.412;20.970;2023-08-01T05:53:33;99503.72;;;18.66;100.00
36062;BME280;22123;52.412;20.970;2023-08-01T05:55:59;99510.97;;;18.77;100.00
36062;BME280;22123;52.412;20.970;2023-08-01T05:58:24;99501.69;;;18.78;100.00
36062;BME280;22123;52.412;20.970;2023-08-01T06:00:50;99492.09;;;18.75;100.00
36062;BME280;22123;52.412;20.970;2023-08-01T06:03:16;99505.00;;;18.80;100.00
36062;BME280;22123;52.412;20.970;2023-08-01T06:05:42;99497.09;;;18.79;100.00
36062;BME280;22123;52.412;20.970;2023-08-01T06:08:08;99488.91;;;18.79;100.00
36062;BME280;22123;52.412;20.970;2023-08-01T06:10:37;99501.78;;;18.83;100.00
36062;BME280;22123;52.412;20.970;2023-08-01T06:13:03;99491.63;;;18.79;100.00
36062;BME280;22123;52.412;20.970;2023-08-01T06:15:28;99509.88;;;18.95;100.00
36062;BME280;22123;52.412;20.970;2023-08-01T06:17:54;99483.69;;;18.94;100.00
36062;BME280;22123;52.412;20.970;2023-08-01T06:20:20;99508.66;;;19.25;100.00
36062;BME280;22123;52.412;20.970;2023-08-01T06:22:46;99505.44;;;19.28;100.00
36062;BME280;22123;52.412;20.970;2023-08-01T06:25:12;99464.63;;;19.16;100.00
36062;BME280;22123;52.412;20.970;2023-08-01T06:27:38;99492.94;;;19.32;100.00
36062;BME280;22123;52.412;20.970;2023-08-01T06:30:04;99471.09;;;19.32;100.00
36062;BME280;22123;52.412;20.970;2023-08-01T06:32:30;99465.00;;;19.47;100.00
36062;BME280;22123;52.412;20.970;2023-08-01T06:34:56;99485.47;;;19.72;100.00
36062;BME280;22123;52.412;20.970;2023-08-01T06:37:23;99463.63;;;19.72;100.00
36062;BME280;22123;52.412;20.970;2023-08-01T06:39:49;99461.53;;;19.79;100.00
36062;BME280;22123;52.412;20.970;2023-08-01T06:42:15;99461.63;;;19.89;100.00
36062;BME280;22123;52.412;20.970;2023-08-01T06:44:41;99453.25;;;19.96;100.00
36062;BME280;22123;52.412;20.970;2023-08-01T06:47:07;99459.66;;;20.12;100.00
36062;BME280;22123;52.412;20.970;2023-08-01T06:49:32;99449.44;;;20.29;100.00
36062;BME280;22123;52.412;20.970;2023-08-01T06:51:58;99445.66;;;20.36;100.00
36062;BME280;22123;52.412;20.970;2023-08-01T06:54:24;99447.06;;;20.43;100.00
36062;BME280;22123;52.412;20.970;2023-08-01T06:56:50;99466.84;;;20.61;100.00
36062;BME280;22123;52.412;20.970;2023-08-01T06:59:16;99459.75;;;20.60;100.00
36062;BME280;22123;52.412;20.970;2023-08-01T07:01:43;99433.72;;;20.52;100.00
36062;BME280;22123;52.412;20.970;2023-08-01T07:04:13;99433.22;;;20.55;100.00
36062;BME280;22123;52.412;20.970;2023-08-01T07:06:39;99459.44;;;20.89;100.00
36062;BME280;22123;52.412;20.970;2023-08-01T07:09:05;99456.22;;;21.02;100.00
36062;BME280;22123;52.412;20.970;2023-08-01T07:11:31;99457.03;;;21.02;100.00
36062;BME280;22123;52.412;20.970;2023-08-01T07:13:58;99433.69;;;20.90;100.00
36062;BME280;22123;52.412;20.970;2023-08-01T07:16:24;99427.69;;;20.88;100.00
36062;BME280;22123;52.412;20.970;2023-08-01T07:18:50;99451.91;;;21.16;100.00
36062;BME280;22123;52.412;20.970;2023-08-01T07:21:16;99418.13;;;20.95;100.00
36062;BME280;22123;52.412;20.970;2023-08-01T07:23:42;99427.22;;;21.06;100.00
36062;BME280;22123;52.412;20.970;2023-08-01T07:26:09;99427.22;;;21.11;100.00
36062;BME280;22123;52.412;20.970;2023-08-01T07:28:35;99430.84;;;21.22;100.00
36062;BME280;22123;52.412;20.970;2023-08-01T07:31:06;99436.91;;;21.34;100.00
36062;BME280;22123;52.412;20.970;2023-08-01T07:33:33;99433.34;;;21.39;100.00
36062;BME280;22123;52.412;20.970;2023-08-01T07:35:59;99436.94;;;21.45;100.00
36062;BME280;22123;52.412;20.970;2023-08-01T07:38:25;99435.91;;;21.51;100.00
36062;BME280;22123;52.412;20.970;2023-08-01T07:40:51;99417.22;;;21.43;100.00
36062;BME280;22123;52.412;20.970;2023-08-01T07:43:17;99412.06;;;21.51;100.00
36062;BME280;22123;52.412;20.970;2023-08-01T07:45:43;99426.91;;;21.66;100.00
36062;BME280;22123;52.412;20.970;2023-08-01T07:48:09;99416.47;;;21.68;100.00
36062;BME280;22123;52.412;20.970;2023-08-01T07:50:35;99410.19;;;21.67;100.00
36062;BME280;22123;52.412;20.970;2023-08-01T07:53:01;99396.50;;;21.73;100.00
36062;BME280;22123;52.412;20.970;2023-08-01T07:55:26;99409.13;;;21.89;100.00
36062;BME280;22123;52.412;20.970;2023-08-01T07:57:52;99384.47;;;21.89;100.00
36062;BME280;22123;52.412;20.970;2023-08-01T08:00:18;99389.66;;;21.91;100.00
36062;BME280;22123;52.412;20.970;2023-08-01T08:02:45;99376.50;;;21.82;100.00
36062;BME280;22123;52.412;20.970;2023-08-01T08:05:11;99420.06;;;21.99;100.00
36062;BME280;22123;52.412;20.970;2023-08-01T08:07:37;99407.19;;;21.79;100.00
36062;BME280;22123;52.412;20.970;2023-08-01T08:10:04;99383.63;;;21.73;100.00
36062;BME280;22123;52.412;20.970;2023-08-01T08:12:30;99391.56;;;21.75;100.00
36062;BME280;22123;52.412;20.970;2023-08-01T08:14:56;99396.22;;;21.79;100.00
36062;BME280;22123;52.412;20.970;2023-08-01T08:17:22;99394.06;;;21.81;100.00
36062;BME280;22123;52.412;20.970;2023-08-01T08:19:48;99393.78;;;21.93;100.00
36062;BME280;22123;52.412;20.970;2023-08-01T08:22:14;99394.59;;;21.94;100.00
36062;BME280;22123;52.412;20.970;2023-08-01T08:24:40;99379.53;;;21.76;100.00
36062;BME280;22123;52.412;20.970;2023-08-01T08:27:06;99389.13;;;21.94;100.00
36062;BME280;22123;52.412;20.970;2023-08-01T08:29:32;99367.19;;;21.78;100.00
36062;BME280;22123;52.412;20.970;2023-08-01T08:31:59;99364.44;;;21.68;100.00
36062;BME280;22123;52.412;20.970;2023-08-01T08:34:24;99393.50;;;21.84;100.00
36062;BME280;22123;52.412;20.970;2023-08-01T08:36:51;99390.75;;;21.74;100.00
36062;BME280;22123;52.412;20.970;2023-08-01T08:39:17;99377.88;;;21.64;100.00
36062;BME280;22123;52.412;20.970;2023-08-01T08:41:46;99391.03;;;21.73;100.00
36062;BME280;22123;52.412;20.970;2023-08-01T08:44:15;99384.72;;;21.67;100.00
36062;BME280;22123;52.412;20.970;2023-08-01T08:46:42;99384.16;;;21.65;100.00
36062;BME280;22123;52.412;20.970;2023-08-01T08:49:08;99366.59;;;21.50;100.00
36062;BME280;22123;52.412;20.970;2023-08-01T08:51:36;99349.91;;;21.52;100.00
36062;BME280;22123;52.412;20.970;2023-08-01T08:54:02;99348.84;;;21.58;100.00
36062;BME280;22123;52.412;20.970;2023-08-01T08:56:29;99375.94;;;21.75;100.00
36062;BME280;22123;52.412;20.970;2023-08-01T08:58:54;99377.91;;;21.90;100.00
36062;BME280;22123;52.412;20.970;2023-08-01T09:01:20;99348.56;;;21.80;100.00
36062;BME280;22123;52.412;20.970;2023-08-01T09:03:46;99364.19;;;21.85;100.00
36062;BME280;22123;52.412;20.970;2023-08-01T09:06:17;99340.06;;;21.66;100.00
36062;BME280;22123;52.412;20.970;2023-08-01T09:08:51;99351.88;;;21.77;100.00
36062;BME280;22123;52.412;20.970;2023-08-01T09:11:21;99359.28;;;21.87;100.00
36062;BME280;22123;52.412;20.970;2023-08-01T09:13:47;99333.25;;;21.74;100.00
36062;BME280;22123;52.412;20.970;2023-08-01T09:16:14;99367.22;;;21.99;100.00
36062;BME280;22123;52.412;20.970;2023-08-01T09:18:48;99356.81;;;21.96;100.00
36062;BME280;22123;52.412;20.970;2023-08-01T09:21:17;99355.13;;;21.89;100.00
36062;BME280;22123;52.412;20.970;2023-08-01T09:23:43;99360.59;;;22.00;100.00
36062;BME280;22123;52.412;20.970;2023-08-01T09:26:15;99337.34;;;21.97;100.00
36062;BME280;22123;52.412;20.970;2023-08-01T09:28:41;99332.94;;;22.12;100.00
36062;BME280;22123;52.412;20.970;2023-08-01T09:31:10;99347.16;;;22.29;100.00
36062;BME280;22123;52.412;20.970;2023-08-01T09:33:40;99320.59;;;22.19;100.00
36062;BME280;22123;52.412;20.970;2023-08-01T09:36:09;99343.88;;;22.27;100.00
36062;BME280;22123;52.412;20.970;2023-08-01T09:38:36;99327.16;;;22.18;100.00
36062;BME280;22123;52.412;20.970;2023-08-01T09:41:03;99344.44;;;22.34;100.00
36062;BME280;22123;52.412;20.970;2023-08-01T09:43:36;99326.59;;;22.21;100.00
36062;BME280;22123;52.412;20.970;2023-08-01T09:46:03;99337.31;;;22.33;100.00
36062;BME280;22123;52.412;20.970;2023-08-01T09:51:13;99336.69;;;22.52;100.00
36062;BME280;22123;52.412;20.970;2023-08-01T09:53:50;99342.47;;;22.50;100.00
36062;BME280;22123;52.412;20.970;2023-08-01T09:56:21;99338.06;;;22.54;100.00
36062;BME280;22123;52.412;20.970;2023-08-01T09:58:48;99322.47;;;22.45;100.00
36062;BME280;22123;52.412;20.970;2023-08-01T10:01:15;99326.63;;;22.42;100.00
36062;BME280;22123;52.412;20.970;2023-08-01T10:03:47;99336.13;;;22.55;100.00
36062;BME280;22123;52.412;20.970;2023-08-01T10:06:21;99321.66;;;22.39;100.00
36062;BME280;22123;52.412;20.970;2023-08-01T10:08:48;99300.88;;;22.17;100.00
36062;BME280;22123;52.412;20.970;2023-08-01T10:11:16;99321.41;;;22.25;100.00
36062;BME280;22123;52.412;20.970;2023-08-01T10:13:43;99352.66;;;22.24;100.00
36062;BME280;22123;52.412;20.970;2023-08-01T10:16:10;99328.28;;;21.97;100.00
36062;BME280;22123;52.412;20.970;2023-08-01T10:18:37;99320.38;;;21.75;100.00
36062;BME280;22123;52.412;20.970;2023-08-01T10:21:08;99324.19;;;21.58;100.00
36062;BME280;22123;52.412;20.970;2023-08-01T10:23:34;99333.44;;;21.31;100.00
36062;BME280;22123;52.412;20.970;2023-08-01T10:26:03;99350.13;;;21.25;100.00
36062;BME280;22123;52.412;20.970;2023-08-01T10:28:40;99351.69;;;21.00;100.00
36062;BME280;22123;52.412;20.970;2023-08-01T10:31:14;99342.75;;;20.57;100.00
36062;BME280;22123;52.412;20.970;2023-08-01T10:33:42;99329.94;;;20.20;100.00
36062;BME280;22123;52.412;20.970;2023-08-01T10:36:24;99337.44;;;19.97;100.00
36062;BME280;22123;52.412;20.970;2023-08-01T10:38:53;99363.41;;;20.00;100.00
36062;BME280;22123;52.412;20.970;2023-08-01T10:41:25;99364.13;;;19.85;100.00
36062;BME280;22123;52.412;20.970;2023-08-01T10:43:51;99365.38;;;19.77;100.00
36062;BME280;22123;52.412;20.970;2023-08-01T10:46:17;99342.34;;;19.62;100.00
36062;BME280;22123;52.412;20.970;2023-08-01T10:48:52;99341.97;;;19.54;100.00
36062;BME280;22123;52.412;20.970;2023-08-01T10:51:19;99345.19;;;19.51;100.00
36062;BME280;22123;52.412;20.970;2023-08-01T10:53:45;99347.66;;;19.52;100.00
36062;BME280;22123;52.412;20.970;2023-08-01T10:56:19;99352.13;;;19.58;100.00
36062;BME280;22123;52.412;20.970;2023-08-01T10:58:46;99312.63;;;19.39;100.00
36062;BME280;22123;52.412;20.970;2023-08-01T11:01:12;99333.81;;;19.59;100.00
36062;BME280;22123;52.412;20.970;2023-08-01T11:03:38;99339.84;;;19.61;100.00
36062;BME280;22123;52.412;20.970;2023-08-01T11:06:05;99342.09;;;19.69;100.00
36062;BME280;22123;52.412;20.970;2023-08-01T11:08:37;99339.63;;;19.68;100.00
36062;BME280;22123;52.412;20.970;2023-08-01T11:11:11;99343.75;;;19.70;100.00
36062;BME280;22123;52.412;20.970;2023-08-01T11:13:38;99314.91;;;19.52;100.00
36062;BME280;22123;52.412;20.970;2023-08-01T11:16:04;99330.09;;;19.70;100.00
36062;BME280;22123;52.412;20.970;2023-08-01T11:18:30;99321.84;;;19.65;100.00
36062;BME280;22123;52.412;20.970;2023-08-01T11:20:56;99329.31;;;19.75;100.00
36062;BME280;22123;52.412;20.970;2023-08-01T11:23:29;99311.34;;;19.79;100.00
36062;BME280;22123;52.412;20.970;2023-08-01T11:25:55;99312.22;;;19.85;100.00
36062;BME280;22123;52.412;20.970;2023-08-01T11:28:21;99328.56;;;20.17;100.00
36062;BME280;22123;52.412;20.970;2023-08-01T11:30:47;99310.53;;;20.16;100.00
36062;BME280;22123;52.412;20.970;2023-08-01T11:33:19;99331.66;;;20.31;100.00
36062;BME280;22123;52.412;20.970;2023-08-01T11:35:45;99309.22;;;20.29;100.00
36062;BME280;22123;52.412;20.970;2023-08-01T11:38:11;99297.41;;;20.18;100.00
36062;BME280;22123;52.412;20.970;2023-08-01T11:40:38;99327.59;;;20.39;100.00
36062;BME280;22123;52.412;20.970;2023-08-01T11:43:04;99323.47;;;20.36;100.00
36062;BME280;22123;52.412;20.970;2023-08-01T11:45:30;99282.38;;;20.15;100.00
36062;BME280;22123;52.412;20.970;2023-08-01T11:47:56;99321.06;;;20.45;100.00
36062;BME280;22123;52.412;20.970;2023-08-01T11:50:23;99316.16;;;20.47;100.00
36062;BME280;22123;52.412;20.970;2023-08-01T11:52:49;99303.88;;;20.55;100.00
36062;BME280;22123;52.412;20.970;2023-08-01T11:55:26;99297.34;;;20.61;100.00
36062;BME280;22123;52.412;20.970;2023-08-01T11:57:58;99293.38;;;20.79;100.00
36062;BME280;22123;52.412;20.970;2023-08-01T12:00:28;99276.41;;;20.82;100.00
36062;BME280;22123;52.412;20.970;2023-08-01T12:03:08;99279.75;;;21.05;100.00
36062;BME280;22123;52.412;20.970;2023-08-01T12:05:34;99285.81;;;21.27;100.00
36062;BME280;22123;52.412;20.970;2023-08-01T12:08:10;99270.50;;;21.26;100.00
36062;BME280;22123;52.412;20.970;2023-08-01T12:10:40;99260.09;;;21.39;100.00
36062;BME280;22123;52.412;20.970;2023-08-01T12:13:06;99284.75;;;21.64;100.00
36062;BME280;22123;52.412;20.970;2023-08-01T12:15:32;99257.13;;;21.56;100.00
36062;BME280;22123;52.412;20.970;2023-08-01T12:17:58;99256.03;;;21.57;100.00
36062;BME280;22123;52.412;20.970;2023-08-01T12:20:24;99249.44;;;21.52;100.00
36062;BME280;22123;52.412;20.970;2023-08-01T12:22:50;99247.75;;;21.46;100.00
36062;BME280;22123;52.412;20.970;2023-08-01T12:25:15;99238.78;;;21.51;100.00
36062;BME280;22123;52.412;20.970;2023-08-01T12:27:42;99264.22;;;21.62;100.00
36062;BME280;22123;52.412;20.970;2023-08-01T12:30:08;99240.69;;;21.56;100.00
36062;BME280;22123;52.412;20.970;2023-08-01T12:32:34;99223.69;;;21.48;100.00
36062;BME280;22123;52.412;20.970;2023-08-01T12:35:00;99232.75;;;21.54;100.00
36062;BME280;22123;52.412;20.970;2023-08-01T12:37:26;99240.13;;;21.64;100.00
36062;BME280;22123;52.412;20.970;2023-08-01T12:39:52;99225.06;;;21.56;100.00